Time;durP1;ratioP1;P1;durP2;ratioP2;P2;SDS_P1;SDS_P2;PMS_P1;PMS_P2;Temp;Humidity;BMP_temperature;BMP_pressure;BME280_temperature;BME280_humidity;BME280_pressure;Samples;Min_cycle;Max_cycle;Signal;HPM_P1;HPM_P2
2023/10/17 00:01:00;;;;;;;0.28;0.10;;;;;;;3.88;63.68;101120.19;5017495;28;20053;-74
2023/10/17 00:03:27;;;;;;;0.93;0.10;;;;;;;3.87;63.82;101114.16;5012010;28;20507;-75
2023/10/17 00:05:56;;;;;;;1.10;0.10;;;;;;;3.88;63.67;101120.19;5013864;28;20054;-74
2023/10/17 00:08:28;;;;;;;1.95;0.20;;;;;;;3.88;63.68;101107.28;5014793;28;20050;-74
2023/10/17 00:10:56;;;;;;;0.35;0.20;;;;;;;3.89;63.93;101116.75;5013699;28;20133;-74
2023/10/17 00:13:38;;;;;;;0.30;0.10;;;;;;;3.89;63.68;101106.41;5015708;28;20489;-74
2023/10/17 00:16:09;;;;;;;0.20;0.10;;;;;;;3.89;64.03;101102.13;5012551;28;21553;-75
2023/10/17 00:18:35;;;;;;;1.10;0.10;;;;;;;3.90;63.94;101103.88;5015791;28;20054;-74
2023/10/17 00:21:10;;;;;;;2.63;0.30;;;;;;;3.91;64.01;101108.19;5011463;28;20596;-75
2023/10/17 00:23:39;;;;;;;0.98;0.10;;;;;;;3.93;63.89;101108.22;5015747;28;20112;-75
2023/10/17 00:26:09;;;;;;;5.20;0.20;;;;;;;3.94;64.22;101107.34;5012871;28;20053;-75
2023/10/17 00:28:36;;;;;;;2.05;0.10;;;;;;;3.94;63.98;101102.19;5018078;28;20054;-74
2023/10/17 00:31:04;;;;;;;2.30;0.10;;;;;;;3.92;63.89;101096.13;5008626;28;20140;-75
2023/10/17 00:33:32;;;;;;;0.32;0.10;;;;;;;3.95;64.00;101102.19;5012913;28;20041;-74
2023/10/17 00:36:03;;;;;;;1.00;0.10;;;;;;;3.95;64.06;101097.03;5009169;28;20045;-74
2023/10/17 00:38:35;;;;;;;0.20;0.10;;;;;;;3.95;63.92;101098.75;5012008;28;20061;-75
2023/10/17 00:41:05;;;;;;;1.05;0.10;;;;;;;3.98;64.10;101096.19;5012273;28;20054;-76
2023/10/17 00:43:32;;;;;;;2.05;0.03;;;;;;;3.94;63.94;101090.13;5015788;28;20544;-75
2023/10/17 00:46:03;;;;;;;0.28;0.10;;;;;;;3.98;64.21;101091.03;5017016;28;20052;-75
2023/10/17 00:48:34;;;;;;;0.63;0.10;;;;;;;3.99;64.25;101095.38;5016623;28;20063;-75
2023/10/17 00:51:07;;;;;;;0.20;0.03;;;;;;;4.00;64.23;101099.69;5014927;28;20046;-74
2023/10/17 00:53:35;;;;;;;0.40;0.00;;;;;;;4.00;64.27;101097.09;5012971;28;20411;-74
2023/10/17 00:56:07;;;;;;;0.20;0.10;;;;;;;4.02;64.21;101092.81;5018349;28;20048;-75
2023/10/17 00:58:35;;;;;;;0.20;0.20;;;;;;;4.00;64.21;101079.00;5011437;28;20049;-74
2023/10/17 01:01:14;;;;;;;0.20;0.17;;;;;;;4.01;64.29;101083.31;5013142;28;20072;-75
2023/10/17 01:03:43;;;;;;;0.10;0.00;;;;;;;4.04;64.31;101085.94;5016850;28;20099;-74
2023/10/17 01:06:23;;;;;;;0.00;0.00;;;;;;;4.00;64.36;101074.69;5008770;28;20050;-75
2023/10/17 01:08:50;;;;;;;0.30;0.00;;;;;;;3.96;64.10;101066.91;5017959;28;20064;-74
2023/10/17 01:11:26;;;;;;;4.05;0.00;;;;;;;4.04;64.31;101073.00;5015195;28;20049;-74
2023/10/17 01:13:53;;;;;;;0.10;0.10;;;;;;;4.02;64.46;101070.44;5018836;28;20049;-76
2023/10/17 01:16:21;;;;;;;0.15;0.00;;;;;;;4.07;64.39;101067.91;5016376;28;20045;-74
2023/10/17 01:18:48;;;;;;;0.10;0.00;;;;;;;4.04;64.63;101067.84;5017154;28;20053;-75
2023/10/17 01:21:18;;;;;;;1.35;0.00;;;;;;;4.08;64.82;101072.22;5015066;28;20468;-74
2023/10/17 01:23:45;;;;;;;1.17;0.10;;;;;;;4.08;64.72;101069.63;5021677;28;20060;-75
2023/10/17 01:26:20;;;;;;;1.35;0.00;;;;;;;4.10;64.69;101075.72;5014224;28;20179;-75
2023/10/17 01:28:47;;;;;;;;;;;;;;;4.12;64.48;101073.13;5017523;28;20133;-74
2023/10/17 01:31:16;;;;;;;0.20;0.00;;;;;;;4.11;64.25;101074.84;5015101;28;19925;-74
2023/10/17 01:33:44;;;;;;;0.47;0.00;;;;;;;4.11;64.44;101072.25;5011339;28;20132;-74
2023/10/17 01:36:13;;;;;;;0.20;0.00;;;;;;;4.09;64.50;101063.59;5019664;28;20048;-75
2023/10/17 01:38:42;;;;;;;0.20;0.00;;;;;;;4.12;64.77;101068.81;5020429;28;20419;-86
2023/10/17 01:41:10;;;;;;;3.53;0.10;;;;;;;4.12;64.72;101071.41;5020741;28;20056;-77
2023/10/17 01:43:41;;;;;;;0.10;0.00;;;;;;;4.13;64.88;101069.72;5020919;28;20066;-76
2023/10/17 01:46:14;;;;;;;1.85;0.00;;;;;;;4.12;64.56;101068.81;5025167;28;20084;-76
2023/10/17 01:48:44;;;;;;;0.38;0.08;;;;;;;4.14;64.53;101064.53;5023537;28;20612;-74
2023/10/17 01:51:12;;;;;;;0.15;0.10;;;;;;;4.14;64.72;101059.38;5032632;28;20049;-78
2023/10/17 01:53:40;;;;;;;0.10;0.10;;;;;;;4.15;64.71;101052.47;5023729;28;20873;-79
2023/10/17 01:56:14;;;;;;;0.00;0.00;;;;;;;4.12;64.76;101052.44;5027850;28;20046;-77
2023/10/17 01:58:48;;;;;;;1.52;0.05;;;;;;;4.15;64.61;101062.81;5024764;28;20052;-78
2023/10/17 02:01:16;;;;;;;0.10;0.00;;;;;;;4.13;64.88;101055.06;5025904;28;20081;-79
2023/10/17 02:03:44;;;;;;;0.10;0.00;;;;;;;4.14;64.81;101061.94;5024811;28;20140;-79
2023/10/17 02:06:14;;;;;;;1.45;0.75;;;;;;;4.13;64.97;101062.81;5024474;28;20124;-79
2023/10/17 02:08:43;;;;;;;2.38;0.08;;;;;;;4.14;65.05;101061.09;5027411;28;20493;-78
2023/10/17 02:11:13;;;;;;;0.22;0.00;;;;;;;4.14;65.02;101066.25;5025251;28;20041;-78
2023/10/17 02:13:45;;;;;;;0.17;0.00;;;;;;;4.14;65.01;101061.94;5019362;28;20140;-78
2023/10/17 02:16:13;;;;;;;0.10;0.00;;;;;;;4.13;65.00;101062.81;5018565;28;20041;-78
2023/10/17 02:18:41;;;;;;;0.85;0.08;;;;;;;4.13;65.03;101055.06;5024400;28;20156;-78
2023/10/17 02:21:07;;;;;;;1.40;0.10;;;;;;;4.13;65.11;101054.19;5029618;28;20046;-78
2023/10/17 02:23:48;;;;;;;0.20;0.00;;;;;;;4.13;65.07;101059.38;5022304;28;20049;-78
2023/10/17 02:26:21;;;;;;;0.00;0.00;;;;;;;4.11;65.28;101055.88;5019782;28;20133;-78
2023/10/17 02:28:50;;;;;;;0.50;0.00;;;;;;;4.11;65.10;101054.16;5017735;28;20060;-78
2023/10/17 02:31:22;;;;;;;0.00;0.00;;;;;;;4.11;65.36;101053.31;5026894;28;20395;-78
2023/10/17 02:33:49;;;;;;;0.38;0.00;;;;;;;4.12;65.17;101053.31;5028222;28;20463;-79
2023/10/17 02:36:17;;;;;;;2.28;0.10;;;;;;;4.11;65.54;101053.31;5027982;28;20057;-78
2023/10/17 02:38:44;;;;;;;0.08;0.00;;;;;;;4.10;65.35;101052.44;5029174;28;20129;-78
2023/10/17 02:41:18;;;;;;;0.32;0.08;;;;;;;4.11;65.26;101054.16;5027108;28;20053;-79
2023/10/17 02:43:46;;;;;;;0.10;0.00;;;;;;;4.10;65.37;101049.84;5029049;28;20467;-78
2023/10/17 02:46:14;;;;;;;2.92;0.10;;;;;;;4.08;65.14;101048.97;5028319;28;20046;-78
2023/10/17 02:48:42;;;;;;;0.05;0.00;;;;;;;4.10;65.39;101048.97;5023949;28;20046;-74
2023/10/17 02:51:31;;;;;;;0.20;0.10;;;;;;;4.04;65.40;101036.81;5018678;28;20465;-75
2023/10/17 02:53:59;;;;;;;2.83;0.00;;;;;;;4.06;65.54;101042.88;5011285;28;20070;-77
2023/10/17 02:56:27;;;;;;;2.53;0.10;;;;;;;4.08;65.37;101046.38;5020822;28;20480;-75
2023/10/17 02:59:09;;;;;;;0.55;0.20;;;;;;;4.05;65.56;101042.03;5021822;28;20048;-75
2023/10/17 03:01:38;;;;;;;0.28;0.10;;;;;;;4.02;65.60;101035.97;5013301;28;20440;-74
2023/10/17 03:04:12;;;;;;;0.20;0.10;;;;;;;4.05;65.69;101047.19;5019350;28;20048;-75
2023/10/17 03:06:41;;;;;;;0.43;0.10;;;;;;;4.03;65.65;101037.69;5019657;28;20562;-75
2023/10/17 03:09:32;;;;;;;0.50;0.10;;;;;;;4.02;65.65;101035.97;5016095;28;20405;-74
2023/10/17 03:12:07;;;;;;;0.50;0.10;;;;;;;4.04;65.88;101039.41;5021280;28;20566;-74
2023/10/17 03:15:17;;;;;;;4.15;0.10;;;;;;;3.96;65.72;101021.25;5019958;28;20050;-75
2023/10/17 03:17:27;;;;;;;0.85;0.32;;;;;;;4.02;65.75;101036.81;5018882;28;20045;-75
2023/10/17 03:19:57;;;;;;;1.67;0.03;;;;;;;4.02;65.84;101035.97;5017586;28;20045;-75
2023/10/17 03:22:24;;;;;;;0.20;0.10;;;;;;;4.00;65.77;101037.66;5013339;28;20112;-75
2023/10/17 03:25:00;;;;;;;0.60;0.30;;;;;;;4.02;65.66;101041.13;5017935;28;20116;-74
2023/10/17 03:27:27;;;;;;;0.43;0.10;;;;;;;4.02;65.81;101035.97;5016063;28;20460;-75
2023/10/17 03:29:54;;;;;;;0.40;0.08;;;;;;;4.02;66.00;101035.97;5015511;28;20124;-74
2023/10/17 03:32:23;;;;;;;1.30;0.20;;;;;;;3.91;65.93;101022.03;5011891;28;20507;-75
2023/10/17 03:34:56;;;;;;;0.20;0.10;;;;;;;4.00;66.19;101032.47;5015996;28;20048;-75
2023/10/17 03:37:29;;;;;;;1.20;0.10;;;;;;;3.98;66.19;101029.84;5019603;28;20491;-75
2023/10/17 03:40:00;;;;;;;1.38;0.10;;;;;;;4.00;65.98;101035.06;5016894;28;20052;-74
2023/10/17 03:42:44;;;;;;;0.57;0.10;;;;;;;3.95;65.96;101019.50;5014867;28;20136;-74
2023/10/17 03:45:18;;;;;;;0.40;0.10;;;;;;;3.98;66.02;101034.16;5018561;28;20469;-75
2023/10/17 03:47:48;;;;;;;0.50;0.10;;;;;;;3.97;66.03;101037.63;5016317;28;20045;-74
2023/10/17 03:53:28;;;;;;;0.57;0.10;;;;;;;3.94;66.08;101035.00;5092264;27;21243;-74
2023/10/17 03:55:55;;;;;;;0.60;0.10;;;;;;;3.95;66.23;101039.31;5074129;28;20475;-75
2023/10/17 03:58:29;;;;;;;1.38;0.20;;;;;;;3.94;66.33;101040.16;5070713;28;20086;-73
2023/10/17 04:00:58;;;;;;;1.30;0.20;;;;;;;3.93;66.16;101035.84;5086333;28;20040;-78
2023/10/17 04:03:26;;;;;;;0.60;0.20;;;;;;;3.90;66.19;101025.44;5089582;28;20109;-79
2023/10/17 04:06:01;;;;;;;0.20;0.10;;;;;;;3.86;66.27;101014.22;5096933;28;20457;-79
2023/10/17 04:08:35;;;;;;;0.52;0.10;;;;;;;3.90;66.54;101015.09;5088700;28;20048;-78
2023/10/17 04:11:17;;;;;;;1.55;0.20;;;;;;;3.90;66.62;101013.41;5063463;28;20114;-76
2023/10/17 04:13:45;;;;;;;2.83;0.10;;;;;;;3.90;66.41;101015.09;5086687;28;20036;-77
2023/10/17 04:16:16;;;;;;;1.23;0.20;;;;;;;3.89;66.35;101018.56;5088343;28;20087;-78
2023/10/17 04:18:48;;;;;;;1.00;0.20;;;;;;;3.84;66.59;101005.56;5091625;28;20040;-76
2023/10/17 04:21:26;;;;;;;0.30;0.20;;;;;;;3.87;66.49;101004.72;5083994;28;20060;-76
2023/10/17 04:23:56;;;;;;;2.28;0.20;;;;;;;3.84;66.61;101002.97;5082830;28;20047;-77
2023/10/17 04:26:27;;;;;;;0.30;0.10;;;;;;;3.85;66.62;101011.63;5078417;28;20409;-75
2023/10/17 04:28:55;;;;;;;0.30;0.10;;;;;;;3.83;66.61;101004.69;5081526;28;20119;-75
2023/10/17 04:31:26;;;;;;;3.30;0.20;;;;;;;3.82;66.64;101012.44;5081526;28;20044;-75
2023/10/17 04:34:05;;;;;;;0.30;0.10;;;;;;;3.80;66.60;101001.22;5087319;28;20525;-76
2023/10/17 04:36:36;;;;;;;2.17;0.10;;;;;;;3.80;66.58;100998.63;5086168;28;20036;-76
2023/10/17 04:39:13;;;;;;;1.85;0.10;;;;;;;3.80;66.78;101001.22;5082779;28;20554;-77
2023/10/17 04:42:04;;;;;;;0.60;0.10;;;;;;;3.77;66.87;100993.44;5083878;28;20079;-76
2023/10/17 04:44:34;;;;;;;0.22;0.10;;;;;;;3.78;66.89;100996.00;5082591;28;20067;-76
2023/10/17 04:47:25;;;;;;;2.42;0.10;;;;;;;3.75;66.90;100995.97;5078788;28;20052;-76
2023/10/17 04:49:52;;;;;;;0.40;0.30;;;;;;;3.78;67.03;101010.66;5075996;28;20790;-77
2023/10/17 04:52:21;;;;;;;0.68;0.10;;;;;;;3.77;67.36;101004.63;5077562;28;20105;-78
2023/10/17 04:54:52;;;;;;;0.20;0.10;;;;;;;3.78;67.42;101005.47;5070845;28;20037;-77
2023/10/17 04:57:21;;;;;;;0.10;0.10;;;;;;;3.70;67.34;100989.91;5075625;28;20048;-77
2023/10/17 05:00:00;;;;;;;0.50;0.20;;;;;;;3.76;67.39;101002.03;5074567;28;20045;-76
2023/10/17 06:19:15;;;;;;;5.40;1.92;;;;;;;3.96;69.32;100979.03;6153879;23;20468;-80
2023/10/17 06:22:35;;;;;;;4.10;0.70;;;;;;;4.00;69.18;100978.19;6151133;23;20029;-81
2023/10/17 06:24:45;;;;;;;3.85;0.30;;;;;;;4.03;69.51;100983.41;6154221;23;20077;-78
2023/10/17 06:27:51;;;;;;;4.20;0.30;;;;;;;4.07;69.51;100982.59;6153991;23;20051;-79
2023/10/17 06:30:26;;;;;;;0.75;0.17;;;;;;;4.05;69.99;100977.41;6149361;23;20025;-82
2023/10/17 06:33:05;;;;;;;0.95;0.10;;;;;;;3.98;69.97;100962.66;6152795;23;20017;-81
2023/10/17 06:35:32;;;;;;;2.95;0.15;;;;;;;4.11;69.77;100976.59;6153090;23;20068;-84
2023/10/17 06:37:59;;;;;;;1.98;0.20;;;;;;;4.18;70.09;100987.88;6154031;23;20524;-84
2023/10/17 06:40:34;;;;;;;4.22;0.73;;;;;;;4.20;70.28;100979.28;6153967;23;20051;-84
2023/10/17 06:43:06;;;;;;;3.72;0.10;;;;;;;4.23;70.28;100981.91;6150564;23;20025;-82
2023/10/17 06:45:37;;;;;;;1.98;0.38;;;;;;;4.25;70.33;100985.38;6148906;23;20060;-78
2023/10/17 06:48:08;;;;;;;3.25;1.27;;;;;;;4.28;70.41;100981.97;6148937;23;20065;-77
2023/10/17 06:53:18;;;;;;;1.80;0.20;;;;;;;4.36;70.25;100979.47;6152303;23;20049;-78
2023/10/17 06:55:52;;;;;;;1.40;0.22;;;;;;;4.39;70.63;100982.94;6151259;23;20025;-81
2023/10/17 06:58:21;;;;;;;1.98;0.20;;;;;;;4.41;70.46;100983.84;6152292;23;20060;-78
2023/10/17 07:00:51;;;;;;;4.45;1.88;;;;;;;4.34;70.68;100957.88;6150632;23;20060;-77
2023/10/17 07:03:24;;;;;;;4.57;1.30;;;;;;;4.45;70.95;100974.38;6150727;23;20022;-75
2023/10/17 07:05:52;;;;;;;28.70;13.23;;;;;;;4.51;70.71;100979.59;6147951;23;20024;-75
2023/10/17 07:08:20;;;;;;;4.93;1.92;;;;;;;4.54;70.57;100979.63;6151791;23;20017;-84
2023/10/17 07:11:02;;;;;;;2.35;0.40;;;;;;;4.42;70.56;100953.66;6126474;23;20091;-83
2023/10/17 07:14:21;;;;;;;1.60;0.30;;;;;;;4.61;70.49;100980.53;6149895;23;20441;-80
2023/10/17 07:16:57;;;;;;;12.13;1.15;;;;;;;4.60;70.49;100971.06;6152039;23;20040;-78
2023/10/17 07:22:11;;;;;;;10.20;0.20;;;;;;;4.67;70.74;100983.22;6145223;23;20044;-77
2023/10/17 07:24:42;;;;;;;2.10;0.30;;;;;;;4.68;70.82;100978.03;6149660;23;20017;-77
2023/10/17 07:27:26;;;;;;;6.38;1.40;;;;;;;4.74;70.79;100980.66;6150534;23;20022;-78
2023/10/17 07:30:00;;;;;;;9.18;2.10;;;;;;;4.77;71.19;100978.97;6147103;23;20017;-84
2023/10/17 07:32:32;;;;;;;5.88;1.35;;;;;;;4.82;70.92;100977.28;6154840;23;20022;-84
2023/10/17 07:35:04;;;;;;;1.67;0.77;;;;;;;4.84;71.24;100972.97;6153940;23;20025;-84
2023/10/17 07:37:39;;;;;;;3.75;0.40;;;;;;;4.87;71.22;100967.84;6151918;23;20018;-79
2023/10/17 07:40:18;;;;;;;5.45;1.00;;;;;;;4.96;71.19;100968.78;6153552;23;20025;-83
2023/10/17 07:42:47;;;;;;;2.63;0.30;;;;;;;5.01;71.24;100966.25;6149889;23;20108;-82
2023/10/17 07:45:15;;;;;;;5.03;0.30;;;;;;;5.06;71.25;100961.06;6152754;23;20037;-82
2023/10/17 07:47:43;;;;;;;2.53;1.48;;;;;;;5.13;71.51;100963.72;6151720;23;20072;-84
2023/10/17 07:50:13;;;;;;;2.05;0.50;;;;;;;5.19;71.57;100961.16;6154599;23;20025;-80
2023/10/17 07:52:43;;;;;;;2.55;0.50;;;;;;;5.25;71.50;100956.91;6149875;23;20100;-81
2023/10/17 07:55:23;;;;;;;2.35;0.52;;;;;;;5.32;71.67;100956.94;6153739;23;20029;-82
2023/10/17 07:58:06;;;;;;;2.15;0.40;;;;;;;5.40;71.59;100951.78;6153998;23;20469;-84
2023/10/17 08:00:34;;;;;;;1.38;0.40;;;;;;;5.47;71.49;100952.72;6151444;23;20060;-86
2023/10/17 08:03:07;;;;;;;2.60;0.50;;;;;;;5.51;71.63;100951.84;6153775;23;20020;-84
2023/10/17 08:05:38;;;;;;;0.70;0.35;;;;;;;5.59;71.41;100953.63;6150186;23;20552;-86
2023/10/17 08:08:08;;;;;;;35.55;14.55;;;;;;;5.67;71.68;100952.81;6131964;23;20025;-80
2023/10/17 08:10:38;;;;;;;5.22;1.20;;;;;;;5.67;71.88;100934.66;6151084;23;20064;-80
2023/10/17 08:13:08;;;;;;;4.22;0.52;;;;;;;5.85;71.81;100952.88;6153738;23;20397;-80
2023/10/17 08:15:41;;;;;;;2.90;0.32;;;;;;;5.94;71.87;100947.75;6152322;23;20346;-80
2023/10/17 08:18:15;;;;;;;2.07;0.20;;;;;;;6.03;71.51;100945.19;6150674;23;20051;-80
2023/10/17 08:23:29;;;;;;;1.75;0.20;;;;;;;6.24;71.73;100943.50;6149421;23;20029;-85
2023/10/17 08:25:59;;;;;;;0.50;0.17;;;;;;;6.33;71.97;100940.94;6155519;23;20353;-83
2023/10/17 08:28:34;;;;;;;5.07;1.40;;;;;;;6.42;71.93;100933.16;6141963;23;20033;-89
2023/10/17 08:31:17;;;;;;;9.95;2.83;;;;;;;6.53;71.97;100935.75;6146709;23;20076;-85
2023/10/17 08:33:47;;;;;;;5.20;1.40;;;;;;;6.61;71.93;100928.84;6154313;23;20044;-80
2023/10/17 08:36:14;;;;;;;5.28;0.55;;;;;;;6.72;71.82;100936.66;6152354;23;20024;-82
2023/10/17 08:38:41;;;;;;;4.63;0.40;;;;;;;6.83;71.62;100928.81;6154046;23;20087;-82
2023/10/17 08:41:08;;;;;;;1.50;0.40;;;;;;;6.91;71.62;100934.88;6151820;23;20299;-80
2023/10/17 08:43:36;;;;;;;2.28;0.13;;;;;;;6.99;71.56;100927.94;6153814;23;20072;-81
2023/10/17 08:46:12;;;;;;;3.28;0.40;;;;;;;7.08;71.48;100930.53;6151297;23;20029;-79
2023/10/17 08:48:43;;;;;;;0.98;0.30;;;;;;;7.17;71.65;100924.44;6154781;23;20022;-83
2023/10/17 08:51:32;;;;;;;30.17;13.18;;;;;;;7.25;71.52;100924.44;6155016;23;20072;-80
2023/10/17 08:53:59;;;;;;;11.82;4.55;;;;;;;7.25;71.38;100907.13;6154069;23;20033;-79
2023/10/17 08:56:31;;;;;;;4.47;1.00;;;;;;;7.28;71.30;100894.09;6151717;23;20060;-80
2023/10/17 08:59:14;;;;;;;2.20;0.38;;;;;;;7.42;71.18;100913.13;6154899;23;20036;-81
2023/10/17 09:02:00;;;;;;;0.88;0.20;;;;;;;7.51;70.80;100916.56;6154010;23;20417;-80
2023/10/17 09:04:32;;;;;;;4.53;0.20;;;;;;;7.56;70.98;100926.06;6154552;23;20022;-79
2023/10/17 09:06:59;;;;;;;2.42;0.10;;;;;;;7.62;71.29;100922.59;6149177;23;20357;-78
2023/10/17 09:09:29;;;;;;;2.40;0.20;;;;;;;7.65;71.05;100922.56;6151707;23;20501;-76
2023/10/17 09:14:48;;;;;;;2.60;0.28;;;;;;;7.79;70.78;100928.56;6150000;23;20468;-79
2023/10/17 09:17:16;;;;;;;2.30;0.20;;;;;;;7.82;70.78;100920.75;6149771;23;20037;-80
2023/10/17 09:19:50;;;;;;;3.17;0.30;;;;;;;7.84;70.87;100924.22;6150731;23;20485;-79
2023/10/17 09:22:20;;;;;;;0.17;0.00;;;;;;;7.93;70.61;100925.91;6153148;23;20367;-81
2023/10/17 09:24:48;;;;;;;4.00;0.30;;;;;;;7.95;70.60;100920.72;6152687;23;20029;-79
2023/10/17 09:27:15;;;;;;;0.28;0.10;;;;;;;8.03;70.75;100924.16;6153114;23;20025;-82
2023/10/17 09:29:45;;;;;;;0.70;0.00;;;;;;;8.07;70.87;100918.91;6153070;23;20543;-82
2023/10/17 09:32:13;;;;;;;3.75;0.17;;;;;;;8.12;70.80;100916.28;6152284;23;20024;-79
2023/10/17 09:34:42;;;;;;;1.25;0.20;;;;;;;8.17;70.26;100919.72;6153142;23;20021;-82
2023/10/17 09:37:13;;;;;;;0.40;0.00;;;;;;;8.17;70.17;100909.31;6153215;23;20524;-81
2023/10/17 09:39:46;;;;;;;8.48;4.22;;;;;;;8.26;70.40;100913.59;6153244;23;20457;-84
2023/10/17 09:42:14;;;;;;;3.45;1.40;;;;;;;8.21;70.21;100895.41;6152091;23;20022;-81
2023/10/17 09:44:42;;;;;;;0.45;0.10;;;;;;;8.33;70.33;100900.50;6152710;23;20025;-81
2023/10/17 09:47:11;;;;;;;1.02;0.73;;;;;;;8.38;69.52;100900.47;6153358;23;20381;-83
2023/10/17 09:49:45;;;;;;;10.77;4.20;;;;;;;8.36;69.86;100888.34;6152917;23;20104;-81
2023/10/17 09:52:14;;;;;;;305.88;41.10;;;;;;;8.47;69.57;100889.16;6152316;23;20025;-80
2023/10/17 09:54:46;;;;;;;133.93;14.98;;;;;;;8.49;69.66;100890.03;6154453;23;20025;-81
2023/10/17 09:57:20;;;;;;;25.08;1.50;;;;;;;8.52;69.47;100890.00;6154700;23;20026;-81
2023/10/17 10:00:02;;;;;;;23.13;8.43;;;;;;;8.56;69.78;100889.09;6154834;23;20025;-80
2023/10/17 10:02:34;;;;;;;2.05;0.40;;;;;;;8.60;69.76;100883.00;6155805;23;20029;-80
2023/10/17 10:05:19;;;;;;;151.40;18.58;;;;;;;8.64;69.58;100886.44;6154798;23;20021;-79
2023/10/17 10:07:46;;;;;;;0.75;0.30;;;;;;;8.68;69.45;100881.19;6154043;23;20022;-78
2023/10/17 10:10:52;;;;;;;0.28;0.10;;;;;;;8.74;69.16;100881.13;6149912;23;20027;-75
2023/10/17 10:13:20;;;;;;;6.00;0.13;;;;;;;8.74;69.17;100865.50;6148266;23;20465;-75
2023/10/17 10:15:55;;;;;;;0.77;0.10;;;;;;;8.81;69.13;100857.63;6150211;23;20079;-75
2023/10/17 10:18:58;;;;;;;12.33;6.17;;;;;;;8.86;68.91;100859.31;6151101;23;20025;-74
2023/10/17 10:21:53;;;;;;;5.55;0.52;;;;;;;8.89;68.77;100854.06;6154838;23;20028;-80
2023/10/17 10:24:26;;;;;;;0.17;0.00;;;;;;;8.93;69.01;100858.34;6152471;23;20096;-81
2023/10/17 10:27:18;;;;;;;1.35;0.30;;;;;;;8.97;68.38;100854.84;6155545;23;20022;-79
2023/10/17 10:29:47;;;;;;;1.92;0.10;;;;;;;8.99;68.70;100853.09;6155117;23;20352;-80
2023/10/17 10:32:30;;;;;;;1.85;0.10;;;;;;;9.06;68.43;100860.84;6154485;23;20025;-80
2023/10/17 10:34:59;;;;;;;1.92;0.25;;;;;;;9.07;68.52;100853.00;6152891;23;20052;-79
2023/10/17 10:37:26;;;;;;;0.63;0.10;;;;;;;8.96;68.44;100834.00;6155013;23;20444;-80
2023/10/17 10:40:12;;;;;;;1.38;0.00;;;;;;;9.14;67.93;100857.28;6153512;23;20025;-79
2023/10/17 10:42:42;;;;;;;;;;;;;;;9.17;68.11;100849.41;6154475;23;20097;-79
2023/10/17 10:45:24;;;;;;;1.48;0.10;;;;;;;9.19;68.13;100852.88;6151421;23;19991;-77
2023/10/17 10:47:57;;;;;;;1.60;0.10;;;;;;;9.21;67.77;100853.69;6154119;23;20420;-82
2023/10/17 10:50:27;;;;;;;10.13;1.63;;;;;;;9.21;67.81;100845.88;6154245;23;20022;-79
2023/10/17 10:52:56;;;;;;;4.03;1.48;;;;;;;9.26;67.85;100845.84;6151555;23;20025;-80
2023/10/17 10:55:25;;;;;;;2.63;0.20;;;;;;;9.29;67.55;100839.72;6156296;23;20022;-79
2023/10/17 10:57:52;;;;;;;0.20;0.00;;;;;;;9.30;67.50;100838.84;6154392;23;20022;-81
2023/10/17 11:00:20;;;;;;;1980.45;327.15;;;;;;;9.31;67.57;100838.84;6155162;23;20437;-84
2023/10/17 11:02:48;;;;;;;131.85;14.70;;;;;;;9.32;67.73;100829.25;6155046;23;20056;-83
2023/10/17 11:05:16;;;;;;;20.60;2.67;;;;;;;9.31;67.71;100815.38;6156799;23;20029;-82
2023/10/17 11:07:46;;;;;;;18.33;1.65;;;;;;;9.23;67.14;100802.44;6155825;23;20789;-82
2023/10/17 11:10:14;;;;;;;2.00;0.20;;;;;;;9.39;67.14;100817.84;6153883;23;20357;-82
2023/10/17 11:12:52;;;;;;;3.50;0.10;;;;;;;9.40;67.00;100810.03;6154827;23;20025;-79
2023/10/17 11:15:22;;;;;;;0.52;0.10;;;;;;;9.42;67.34;100807.38;6152334;23;20023;-83
2023/10/17 11:17:49;;;;;;;3.08;0.63;;;;;;;9.43;67.32;100798.69;6156153;23;20028;-80
2023/10/17 11:20:17;;;;;;;4.10;0.08;;;;;;;9.46;67.49;100798.66;6149883;23;20345;-76
2023/10/17 11:22:46;;;;;;;1.95;0.10;;;;;;;9.50;67.41;100789.91;6151003;23;20101;-76
2023/10/17 11:25:21;;;;;;;26.70;7.40;;;;;;;9.46;67.43;100772.59;6153237;23;20017;-78
2023/10/17 11:27:56;;;;;;;203.05;23.38;;;;;;;9.49;67.46;100777.75;6154207;23;20029;-80
2023/10/17 11:30:32;;;;;;;10.20;0.70;;;;;;;9.56;67.32;100782.00;6153830;23;20032;-78
2023/10/17 11:33:04;;;;;;;3.90;0.65;;;;;;;9.58;66.97;100768.94;6152510;23;20024;-79
2023/10/17 11:35:34;;;;;;;2.45;0.30;;;;;;;9.62;66.75;100770.59;6153263;23;20028;-78
2023/10/17 11:38:03;;;;;;;3.38;0.15;;;;;;;9.64;67.00;100767.09;6152523;23;20021;-78
2023/10/17 11:40:30;;;;;;;0.93;0.20;;;;;;;9.68;67.05;100766.19;6151108;23;20055;-78
2023/10/17 11:42:58;;;;;;;1.30;0.10;;;;;;;9.64;67.43;100755.81;6148145;23;20069;-76
2023/10/17 11:45:33;;;;;;;1.98;0.05;;;;;;;9.74;67.05;100769.59;6147307;23;20017;-75
2023/10/17 11:48:14;;;;;;;0.52;0.00;;;;;;;9.77;66.82;100769.53;6148985;23;20021;-74
2023/10/17 11:50:41;;;;;;;10.43;1.83;;;;;;;9.79;67.03;100762.53;6149696;23;20104;-75
2023/10/17 11:53:14;;;;;;;6.68;3.00;;;;;;;9.79;66.87;100752.09;6148592;23;20407;-75
2023/10/17 11:55:43;;;;;;;2.88;0.40;;;;;;;9.84;66.83;100747.66;6148157;23;20025;-75
2023/10/17 11:58:11;;;;;;;4.70;0.10;;;;;;;9.86;67.15;100762.41;6147171;23;20061;-75
2023/10/17 12:00:38;;;;;;;0.88;0.03;;;;;;;9.88;66.86;100746.75;6149591;23;20026;-75
2023/10/17 12:03:05;;;;;;;2.33;0.30;;;;;;;9.90;66.73;100748.47;6148361;23;20022;-77
2023/10/17 12:05:35;;;;;;;0.70;0.00;;;;;;;9.94;66.58;100753.63;6151704;23;20024;-84
2023/10/17 12:08:02;;;;;;;2.90;0.03;;;;;;;9.88;66.86;100728.50;6148662;23;20025;-73
2023/10/17 12:10:36;;;;;;;1.65;0.10;;;;;;;9.98;66.60;100743.09;6130817;23;20322;-74
2023/10/17 12:13:07;;;;;;;1999.90;618.55;;;;;;;10.01;66.92;100744.78;6141847;23;20022;-76
2023/10/17 12:15:34;;;;;;;1999.90;325.75;;;;;;;10.03;66.97;100743.03;6148102;23;20026;-75
2023/10/17 12:18:01;;;;;;;99.63;12.80;;;;;;;10.05;67.12;100741.25;6147071;23;20032;-76
2023/10/17 12:20:28;;;;;;;192.65;24.67;;;;;;;10.07;66.78;100742.94;6149895;23;20069;-78
2023/10/17 12:22:56;;;;;;;8.32;1.95;;;;;;;10.11;67.02;100736.78;6152844;23;20134;-78
2023/10/17 12:25:24;;;;;;;11.38;2.25;;;;;;;10.15;67.00;100740.19;6152711;23;20393;-78
2023/10/17 12:27:56;;;;;;;3.10;0.10;;;;;;;10.09;67.07;100728.13;6149467;23;20025;-76
2023/10/17 12:30:26;;;;;;;2.13;0.93;;;;;;;10.20;67.03;100734.91;6149973;23;20032;-90
2023/10/17 12:32:55;;;;;;;4.55;0.65;;;;;;;10.22;66.99;100731.38;6154677;23;20479;-82
2023/10/17 12:35:22;;;;;;;8.00;0.63;;;;;;;10.26;67.05;100740.00;6152843;23;20322;-82
2023/10/17 12:37:51;;;;;;;4.30;1.45;;;;;;;10.28;66.97;100735.66;6153942;23;20486;-88
2023/10/17 12:40:20;;;;;;;3.53;0.40;;;;;;;10.31;67.25;100733.00;6147348;23;20266;-77
2023/10/17 12:42:47;;;;;;;0.60;0.15;;;;;;;10.32;66.93;100732.97;6151318;23;20394;-77
2023/10/17 12:45:18;;;;;;;165.80;17.40;;;;;;;10.35;66.56;100730.28;6147301;23;20017;-77
2023/10/17 12:47:47;;;;;;;4.68;1.00;;;;;;;10.36;67.28;100731.19;6151596;23;20092;-76
2023/10/17 12:50:15;;;;;;;1.20;0.15;;;;;;;10.39;67.02;100731.13;6149232;23;20096;-76
2023/10/17 12:52:42;;;;;;;0.90;0.15;;;;;;;10.42;66.94;100728.44;6148422;23;20021;-79
2023/10/17 12:55:11;;;;;;;8.15;2.58;;;;;;;10.43;66.98;100724.09;6147152;23;20021;-76
2023/10/17 12:57:38;;;;;;;1.27;0.30;;;;;;;10.43;66.89;100724.94;6150450;23;20075;-79
2023/10/17 13:00:14;;;;;;;7.18;3.33;;;;;;;10.35;67.25;100705.94;6148422;23;20345;-77
2023/10/17 13:02:42;;;;;;;1.80;0.20;;;;;;;10.48;67.03;100725.72;6152601;23;20021;-84
2023/10/17 13:05:10;;;;;;;3.88;0.35;;;;;;;10.48;67.06;100714.41;6152550;23;20018;-80
2023/10/17 13:07:38;;;;;;;3.65;0.10;;;;;;;10.50;67.18;100716.09;6152243;23;20021;-77
2023/10/17 13:10:07;;;;;;;0.80;0.20;;;;;;;10.52;67.07;100721.28;6153070;23;20087;-78
2023/10/17 13:12:34;;;;;;;2.47;0.10;;;;;;;10.50;67.14;100713.50;6145906;23;20022;-78
2023/10/17 13:15:01;;;;;;;3.03;0.20;;;;;;;10.47;67.10;100702.22;6153786;23;20021;-80
2023/10/17 13:17:28;;;;;;;6.13;0.10;;;;;;;10.44;67.18;100695.31;6147908;23;20028;-82
2023/10/17 13:19:57;;;;;;;9.73;1.90;;;;;;;10.50;67.31;100699.56;6156321;23;20018;-77
2023/10/17 13:22:24;;;;;;;24.55;11.60;;;;;;;10.57;67.07;100698.56;6148104;23;20041;-78
2023/10/17 13:24:51;;;;;;;1.73;0.82;;;;;;;10.59;67.16;100707.22;6142924;23;20549;-80